createdAt,value
2018-04-02T00:00:02.416Z,18.94
2018-04-02T00:01:02.430Z,19.01
2018-04-02T00:02:02.387Z,18.88
2018-04-02T00:03:02.450Z,18.95
2018-04-02T00:04:02.402Z,18.98
2018-04-02T00:05:02.403Z,18.88
2018-04-02T00:06:02.436Z,18.92
2018-04-02T00:07:02.385Z,18.97
2018-04-02T00:08:02.440Z,18.85
2018-04-02T00:09:02.411Z,18.91
2018-04-02T00:10:02.397Z,18.94
2018-04-02T00:11:02.544Z,18.87
2018-04-02T00:12:02.392Z,18.88
2018-04-02T00:13:02.390Z,18.94
2018-04-02T00:14:02.422Z,18.85
2018-04-02T00:15:02.404Z,18.88
2018-04-02T00:16:02.426Z,18.95
2018-04-02T00:17:02.400Z,18.81
2018-04-02T00:18:02.406Z,18.88
2018-04-02T00:19:02.398Z,18.92
2018-04-02T00:20:02.407Z,18.84
2018-04-02T00:21:02.441Z,18.87
2018-04-02T00:22:02.395Z,18.92
2018-04-02T00:23:02.423Z,18.81
2018-04-02T00:24:02.684Z,18.87
2018-04-02T00:25:02.419Z,18.92
2018-04-02T00:26:02.415Z,18.81
2018-04-02T00:27:02.418Z,18.85
2018-04-02T00:28:02.380Z,18.9
2018-04-02T00:29:02.414Z,18.8
2018-04-02T00:30:02.427Z,18.84
2018-04-02T00:31:02.378Z,18.91
2018-04-02T00:32:02.418Z,18.8
2018-04-02T00:33:02.391Z,18.84
2018-04-02T00:34:02.380Z,18.87
2018-04-02T00:35:02.409Z,18.81
2018-04-02T00:36:02.383Z,18.84
2018-04-02T00:37:02.523Z,18.85
2018-04-02T00:38:02.391Z,18.81
2018-04-02T00:39:02.367Z,18.84
2018-04-02T00:40:02.404Z,18.87
2018-04-02T00:41:02.385Z,18.77
2018-04-02T00:42:02.484Z,18.81
2018-04-02T00:43:02.508Z,18.87
2018-04-02T00:44:02.375Z,18.73
2018-04-02T00:45:02.373Z,18.78
2018-04-02T00:46:02.649Z,18.83
2018-04-02T00:47:02.410Z,18.75
2018-04-02T00:48:02.395Z,18.78
2018-04-02T00:49:02.376Z,18.84
2018-04-02T00:50:02.381Z,18.73
2018-04-02T00:51:02.444Z,18.75
2018-04-02T00:52:02.393Z,18.8
2018-04-02T00:53:02.497Z,18.7
2018-04-02T00:54:02.495Z,18.78
2018-04-02T00:55:02.375Z,18.81
2018-04-02T00:56:02.385Z,18.71
2018-04-02T00:57:02.377Z,18.77
2018-04-02T00:58:02.486Z,18.78
2018-04-02T00:59:02.403Z,18.73
2018-04-02T01:00:02.410Z,18.75
2018-04-02T01:01:02.354Z,18.8
2018-04-02T01:02:02.389Z,18.7
2018-04-02T01:03:02.410Z,18.74
2018-04-02T01:04:02.364Z,18.8
2018-04-02T01:05:02.367Z,18.71
2018-04-02T01:06:02.401Z,18.77
2018-04-02T01:07:02.408Z,18.8
2018-04-02T01:08:02.621Z,18.71
2018-04-02T01:09:02.371Z,18.74
2018-04-02T01:10:02.374Z,18.78
2018-04-02T01:11:02.403Z,18.7
2018-04-02T01:12:02.399Z,18.71
2018-04-02T01:13:02.432Z,18.75
2018-04-02T01:14:02.406Z,18.66
2018-04-02T01:15:02.402Z,18.71
2018-04-02T01:16:02.366Z,18.73
2018-04-02T01:17:02.399Z,18.66
2018-04-02T01:18:02.362Z,18.68
2018-04-02T01:19:02.361Z,18.77
2018-04-02T01:20:02.405Z,18.66
2018-04-02T01:21:02.388Z,18.7
2018-04-02T01:22:02.375Z,18.75
2018-04-02T01:23:02.391Z,18.67
2018-04-02T01:24:02.537Z,18.68
2018-04-02T01:25:02.390Z,18.73
2018-04-02T01:26:02.406Z,18.63
2018-04-02T01:27:02.382Z,18.68
2018-04-02T01:28:02.368Z,18.71
2018-04-02T01:29:02.414Z,18.64
2018-04-02T01:30:02.376Z,18.68
2018-04-02T01:31:02.380Z,18.74
2018-04-02T01:32:02.387Z,18.62
2018-04-02T01:33:02.351Z,18.66
2018-04-02T01:34:02.647Z,18.73
2018-04-02T01:35:02.831Z,18.63
2018-04-02T01:36:02.392Z,18.66
2018-04-02T01:37:02.367Z,18.71
2018-04-02T01:38:02.398Z,18.6
2018-04-02T01:39:02.409Z,18.67
2018-04-02T01:40:02.346Z,18.68
2018-04-02T01:41:02.402Z,18.6
2018-04-02T01:42:02.355Z,18.66
2018-04-02T01:43:02.393Z,18.68
2018-04-02T01:44:02.467Z,18.62
2018-04-02T01:45:02.373Z,18.64
2018-04-02T01:46:02.371Z,18.67
2018-04-02T01:47:02.404Z,18.58
2018-04-02T01:48:02.375Z,18.64
2018-04-02T01:49:02.385Z,18.7
2018-04-02T01:50:02.788Z,18.57
2018-04-02T01:51:02.369Z,18.62
2018-04-02T01:52:02.353Z,18.67
2018-04-02T01:53:02.355Z,18.56
2018-04-02T01:54:02.426Z,18.64
2018-04-02T01:55:02.382Z,18.66
2018-04-02T01:56:02.366Z,18.57
2018-04-02T01:57:02.356Z,18.6
2018-04-02T01:58:02.354Z,18.66
2018-04-02T01:59:02.389Z,18.56
2018-04-02T02:00:02.388Z,18.6
2018-04-02T02:01:02.370Z,18.66
2018-04-02T02:02:02.375Z,18.53
2018-04-02T02:03:03.004Z,18.57
2018-04-02T02:04:02.398Z,18.62
2018-04-02T02:05:02.375Z,18.53
2018-04-02T02:06:02.378Z,18.57
2018-04-02T02:07:02.339Z,18.63
2018-04-02T02:08:02.353Z,18.54
2018-04-02T02:09:02.401Z,18.56
2018-04-02T02:10:02.374Z,18.62
2018-04-02T02:11:02.640Z,18.54
2018-04-02T02:12:02.407Z,18.56
2018-04-02T02:13:02.358Z,18.62
2018-04-02T02:14:02.377Z,18.5
2018-04-02T02:15:02.461Z,18.58
2018-04-02T02:16:02.371Z,18.62
2018-04-02T02:17:02.362Z,18.5
2018-04-02T02:18:02.373Z,18.53
2018-04-02T02:19:02.337Z,18.6
2018-04-02T02:20:02.379Z,18.5
2018-04-02T02:21:02.400Z,18.57
2018-04-02T02:22:02.339Z,18.62
2018-04-02T02:23:02.413Z,18.49
2018-04-02T02:24:02.361Z,18.54
2018-04-02T02:25:02.371Z,18.58
2018-04-02T02:26:02.427Z,18.49
2018-04-02T02:27:02.396Z,18.54
2018-04-02T02:28:02.351Z,18.58
2018-04-02T02:29:02.360Z,18.46
2018-04-02T02:30:02.387Z,18.51
2018-04-02T02:31:02.372Z,18.58
2018-04-02T02:32:02.376Z,18.46
2018-04-02T02:33:02.395Z,18.5
2018-04-02T02:34:02.370Z,18.56
2018-04-02T02:35:02.891Z,18.46
2018-04-02T02:36:02.548Z,18.51
2018-04-02T02:37:02.377Z,18.58
2018-04-02T02:38:02.411Z,18.47
2018-04-02T02:39:02.370Z,18.51
2018-04-02T02:40:02.361Z,18.58
2018-04-02T02:41:02.393Z,18.46
2018-04-02T02:42:02.478Z,18.5
2018-04-02T02:43:02.355Z,18.56
2018-04-02T02:44:02.381Z,18.46
2018-04-02T02:45:02.383Z,18.49
2018-04-02T02:46:02.434Z,18.53
2018-04-02T02:47:02.376Z,18.43
2018-04-02T02:48:02.365Z,18.5
2018-04-02T02:49:02.339Z,18.54
2018-04-02T02:50:02.405Z,18.43
2018-04-02T02:51:02.396Z,18.47
2018-04-02T02:52:02.350Z,18.5
2018-04-02T02:53:02.361Z,18.41
2018-04-02T02:54:02.439Z,18.47
2018-04-02T02:55:02.441Z,18.5
2018-04-02T02:56:02.391Z,18.41
2018-04-02T02:57:02.402Z,18.47
2018-04-02T02:58:02.349Z,18.51
2018-04-02T02:59:02.357Z,18.41
2018-04-02T03:00:02.362Z,18.44
2018-04-02T03:01:02.373Z,18.5
2018-04-02T03:02:02.401Z,18.43
2018-04-02T03:03:02.367Z,18.43
2018-04-02T03:04:02.355Z,18.51
2018-04-02T03:05:02.411Z,18.39
2018-04-02T03:06:02.340Z,18.46
2018-04-02T03:07:02.666Z,18.5
2018-04-02T03:08:02.385Z,18.39
2018-04-02T03:09:02.394Z,18.44
2018-04-02T03:10:02.339Z,18.49
2018-04-02T03:11:02.377Z,18.41
2018-04-02T03:12:02.432Z,18.46
2018-04-02T03:13:02.329Z,18.46
2018-04-02T03:14:02.365Z,18.39
2018-04-02T03:15:02.356Z,18.43
2018-04-02T03:16:02.325Z,18.5
2018-04-02T03:17:02.409Z,18.35
2018-04-02T03:18:02.351Z,18.41
2018-04-02T03:19:02.339Z,18.47
2018-04-02T03:20:02.365Z,18.39
2018-04-02T03:21:02.323Z,18.4
2018-04-02T03:22:02.338Z,18.43
2018-04-02T03:23:02.344Z,18.37
2018-04-02T03:24:02.359Z,18.43
2018-04-02T03:25:02.337Z,18.47
2018-04-02T03:26:02.360Z,18.37
2018-04-02T03:27:02.364Z,18.4
2018-04-02T03:28:02.339Z,18.47
2018-04-02T03:29:02.337Z,18.37
2018-04-02T03:30:02.333Z,18.39
2018-04-02T03:31:02.369Z,18.47
2018-04-02T03:32:02.348Z,18.37
2018-04-02T03:33:02.349Z,18.4
2018-04-02T03:34:02.360Z,18.43
2018-04-02T03:35:02.367Z,18.33
2018-04-02T03:36:02.351Z,18.4
2018-04-02T03:37:02.323Z,18.43
2018-04-02T03:38:02.362Z,18.35
2018-04-02T03:39:02.367Z,18.36
2018-04-02T03:40:02.334Z,18.43
2018-04-02T03:41:02.351Z,18.33
2018-04-02T03:42:02.344Z,18.39
2018-04-02T03:43:02.322Z,18.41
2018-04-02T03:44:02.366Z,18.29
2018-04-02T03:45:02.350Z,18.35
2018-04-02T03:46:02.382Z,18.41
2018-04-02T03:47:02.337Z,18.3
2018-04-02T03:48:02.421Z,18.36
2018-04-02T03:49:02.333Z,18.4
2018-04-02T03:50:02.401Z,18.32
2018-04-02T03:51:02.351Z,18.36
2018-04-02T03:52:02.346Z,18.4
2018-04-02T03:53:02.340Z,18.3
2018-04-02T03:54:02.341Z,18.35
2018-04-02T03:55:02.354Z,18.4
2018-04-02T03:56:02.328Z,18.29
2018-04-02T03:57:02.359Z,18.33
2018-04-02T03:58:02.309Z,18.36
2018-04-02T03:59:02.350Z,18.28
2018-04-02T04:00:02.364Z,18.3
2018-04-02T04:01:02.315Z,18.35
2018-04-02T04:02:02.639Z,18.26
2018-04-02T04:03:02.362Z,18.33
2018-04-02T04:04:02.333Z,18.37
2018-04-02T04:05:02.363Z,18.29
2018-04-02T04:06:02.312Z,18.35
2018-04-02T04:07:02.351Z,18.36
2018-04-02T04:08:02.343Z,18.3
2018-04-02T04:09:02.344Z,18.36
2018-04-02T04:10:02.305Z,18.37
2018-04-02T04:11:02.346Z,18.3
2018-04-02T04:12:02.340Z,18.35
2018-04-02T04:13:02.310Z,18.4
2018-04-02T04:14:02.320Z,18.39
2018-04-02T04:15:02.336Z,18.39
2018-04-02T04:16:02.306Z,18.44
2018-04-02T04:17:02.372Z,18.41
2018-04-02T04:18:02.404Z,18.44
2018-04-02T04:19:02.441Z,18.5
2018-04-02T04:20:02.379Z,18.51
2018-04-02T04:21:02.331Z,18.53
2018-04-02T04:22:02.314Z,18.56
2018-04-02T04:23:02.371Z,18.56
2018-04-02T04:24:02.341Z,18.57
2018-04-02T04:25:02.361Z,18.6
2018-04-02T04:26:02.329Z,18.62
2018-04-02T04:27:02.316Z,18.63
2018-04-02T04:28:02.299Z,18.67
2018-04-02T04:29:02.336Z,18.66
2018-04-02T04:30:02.358Z,18.7
2018-04-02T04:31:02.292Z,18.71
2018-04-02T04:32:02.354Z,18.71
2018-04-02T04:33:02.331Z,18.74
2018-04-02T04:34:02.341Z,18.75
2018-04-02T04:35:02.334Z,18.74
2018-04-02T04:36:02.330Z,18.8
2018-04-02T04:37:02.331Z,18.8
2018-04-02T04:38:02.334Z,18.8
2018-04-02T04:39:02.377Z,18.81
2018-04-02T04:40:02.294Z,18.85
2018-04-02T04:41:02.332Z,18.84
2018-04-02T04:42:02.325Z,18.85
2018-04-02T04:43:02.315Z,18.88
2018-04-02T04:44:02.349Z,18.85
2018-04-02T04:45:02.373Z,18.9
2018-04-02T04:46:02.297Z,18.91
2018-04-02T04:47:02.318Z,18.91
2018-04-02T04:48:02.312Z,18.92
2018-04-02T04:49:02.310Z,18.94
2018-04-02T04:50:02.517Z,18.97
2018-04-02T04:51:02.302Z,18.97
2018-04-02T04:52:02.303Z,18.99
2018-04-02T04:53:02.290Z,18.98
2018-04-02T04:54:02.305Z,19.01
2018-04-02T04:55:02.432Z,19.02
2018-04-02T04:56:02.391Z,18.99
2018-04-02T04:57:02.303Z,19.03
2018-04-02T04:58:02.296Z,19.06
2018-04-02T04:59:02.294Z,19.05
2018-04-02T05:00:02.372Z,19.05
2018-04-02T05:01:02.332Z,19.09
2018-04-02T05:02:02.292Z,19.08
2018-04-02T05:03:02.310Z,19.11
2018-04-02T05:04:02.308Z,19.12
2018-04-02T05:05:02.343Z,19.12
2018-04-02T05:06:02.297Z,19.12
2018-04-02T05:07:02.292Z,19.15
2018-04-02T05:08:02.302Z,19.16
2018-04-02T05:09:02.306Z,19.19
2018-04-02T05:10:02.319Z,19.19
2018-04-02T05:11:02.316Z,19.19
2018-04-02T05:12:02.346Z,19.22
2018-04-02T05:13:02.314Z,19.22
2018-04-02T05:14:02.329Z,19.2
2018-04-02T05:15:02.398Z,19.22
2018-04-02T05:16:02.286Z,19.25
2018-04-02T05:17:02.316Z,19.26
2018-04-02T05:18:02.340Z,19.27
2018-04-02T05:19:02.295Z,19.29
2018-04-02T05:20:02.303Z,19.29
2018-04-02T05:21:02.374Z,19.29
2018-04-02T05:22:02.311Z,19.3
2018-04-02T05:23:02.347Z,19.3
2018-04-02T05:24:02.293Z,19.32
2018-04-02T05:25:02.322Z,19.33
2018-04-02T05:26:02.322Z,19.33
2018-04-02T05:27:02.314Z,19.35
2018-04-02T05:28:02.287Z,19.36
2018-04-02T05:29:02.330Z,19.37
2018-04-02T05:30:02.430Z,19.37
2018-04-02T05:31:02.866Z,19.39
2018-04-02T05:32:02.324Z,19.39
2018-04-02T05:33:02.319Z,19.39
2018-04-02T05:34:02.309Z,19.39
2018-04-02T05:35:02.312Z,19.4
2018-04-02T05:36:02.321Z,19.37
2018-04-02T05:37:02.284Z,19.43
2018-04-02T05:38:02.334Z,19.45
2018-04-02T05:39:02.285Z,19.43
2018-04-02T05:40:02.279Z,19.45
2018-04-02T05:41:02.121Z,19.45
2018-04-02T05:42:02.340Z,19.45
2018-04-02T05:43:02.287Z,19.47
2018-04-02T05:44:02.307Z,19.46
2018-04-02T05:45:02.314Z,19.49
2018-04-02T05:46:02.301Z,19.49
2018-04-02T05:47:02.320Z,19.49
2018-04-02T05:48:02.294Z,19.5
2018-04-02T05:49:02.290Z,19.52
2018-04-02T05:50:02.304Z,19.49
2018-04-02T05:51:02.680Z,19.54
2018-04-02T05:52:02.334Z,19.57
2018-04-02T05:53:02.279Z,19.54
2018-04-02T05:54:02.321Z,19.54
2018-04-02T05:55:02.295Z,19.57
2018-04-02T05:56:02.284Z,19.57
2018-04-02T05:57:02.293Z,19.57
2018-04-02T05:58:02.286Z,19.58
2018-04-02T05:59:02.294Z,19.56
2018-04-02T06:00:02.286Z,19.58
2018-04-02T06:01:02.297Z,19.6
2018-04-02T06:02:02.299Z,19.6
2018-04-02T06:03:02.937Z,19.63
2018-04-02T06:04:02.311Z,19.6
2018-04-02T06:05:02.332Z,19.63
2018-04-02T06:06:02.305Z,19.65
2018-04-02T06:07:02.286Z,19.65
2018-04-02T06:08:02.272Z,19.65
2018-04-02T06:09:02.307Z,19.67
2018-04-02T06:10:02.285Z,19.7
2018-04-02T06:11:02.329Z,19.68
2018-04-02T06:12:02.308Z,19.67
2018-04-02T06:13:02.300Z,19.68
2018-04-02T06:14:02.288Z,19.7
2018-04-02T06:15:02.308Z,19.68
2018-04-02T06:16:02.301Z,19.71
2018-04-02T06:17:02.309Z,19.7
2018-04-02T06:18:02.265Z,19.73
2018-04-02T06:19:02.284Z,19.73
2018-04-02T06:20:02.405Z,19.73
2018-04-02T06:21:02.278Z,19.73
2018-04-02T06:22:02.311Z,19.74
2018-04-02T06:23:02.394Z,19.73
2018-04-02T06:24:02.302Z,19.75
2018-04-02T06:25:02.361Z,19.75
2018-04-02T06:26:02.296Z,19.73
2018-04-02T06:27:02.263Z,19.75
2018-04-02T06:28:02.268Z,19.77
2018-04-02T06:29:02.318Z,19.77
2018-04-02T06:30:02.301Z,19.75
2018-04-02T06:31:02.318Z,19.78
2018-04-02T06:32:02.279Z,19.77
2018-04-02T06:33:02.277Z,19.78
2018-04-02T06:34:02.563Z,19.81
2018-04-02T06:35:02.306Z,19.8
2018-04-02T06:36:02.309Z,19.8
2018-04-02T06:37:02.995Z,19.8
2018-04-02T06:38:02.264Z,19.81
2018-04-02T06:39:02.338Z,19.82
2018-04-02T06:40:02.316Z,19.8
2018-04-02T06:41:02.297Z,19.81
2018-04-02T06:42:02.266Z,19.84
2018-04-02T06:43:02.274Z,19.85
2018-04-02T06:44:02.296Z,19.82
2018-04-02T06:45:02.290Z,19.82
2018-04-02T06:46:02.259Z,19.86
2018-04-02T06:47:02.259Z,19.86
2018-04-02T06:48:02.263Z,19.85
2018-04-02T06:49:02.298Z,19.85
2018-04-02T06:50:02.303Z,19.86
2018-04-02T06:51:02.297Z,19.88
2018-04-02T06:52:02.247Z,19.88
2018-04-02T06:53:02.287Z,19.43
2018-04-02T06:54:02.364Z,19.4
2018-04-02T06:55:02.259Z,19.45
2018-04-02T06:56:02.382Z,19.29
2018-04-02T06:57:02.374Z,19.29
2018-04-02T06:58:02.270Z,19.35
2018-04-02T06:59:02.280Z,19.12
2018-04-02T07:00:02.290Z,19.2
2018-04-02T07:01:02.319Z,19.23
2018-04-02T07:02:02.340Z,19.16
2018-04-02T07:03:02.272Z,19.27
2018-04-02T07:04:02.297Z,19.36
2018-04-02T07:05:02.330Z,19.39
2018-04-02T07:06:02.279Z,19.47
2018-04-02T07:07:02.504Z,19.56
2018-04-02T07:08:02.284Z,19.56
2018-04-02T07:09:02.299Z,19.6
2018-04-02T07:10:02.300Z,19.63
2018-04-02T07:11:02.837Z,19.63
2018-04-02T07:12:02.281Z,19.64
2018-04-02T07:13:02.334Z,19.7
2018-04-02T07:14:02.298Z,19.71
2018-04-02T07:15:02.288Z,19.71
2018-04-02T07:16:02.295Z,19.74
2018-04-02T07:17:02.296Z,19.74
2018-04-02T07:18:02.269Z,19.75
2018-04-02T07:19:02.245Z,19.78
2018-04-02T07:20:02.308Z,19.73
2018-04-02T07:21:02.253Z,19.74
2018-04-02T07:22:02.275Z,19.78
2018-04-02T07:23:02.744Z,19.81
2018-04-02T07:24:02.343Z,19.81
2018-04-02T07:25:02.365Z,19.85
2018-04-02T07:26:02.286Z,19.84
2018-04-02T07:27:02.287Z,19.81
2018-04-02T07:28:02.296Z,19.84
2018-04-02T07:29:02.318Z,19.81
2018-04-02T07:30:02.294Z,19.84
2018-04-02T07:31:02.277Z,19.85
2018-04-02T07:32:02.313Z,19.84
2018-04-02T07:33:02.293Z,19.84
2018-04-02T07:34:02.279Z,19.85
2018-04-02T07:35:08.047Z,19.82
2018-04-02T07:36:02.281Z,19.85
2018-04-02T07:37:02.269Z,19.85
2018-04-02T07:38:02.243Z,19.84
2018-04-02T07:39:02.243Z,19.84
2018-04-02T07:40:02.277Z,19.86
2018-04-02T07:41:02.249Z,19.85
2018-04-02T07:42:02.264Z,19.88
2018-04-02T07:43:02.268Z,19.89
2018-04-02T07:44:02.288Z,19.86
2018-04-02T07:45:02.548Z,19.89
2018-04-02T07:46:02.265Z,19.93
2018-04-02T07:47:02.323Z,19.89
2018-04-02T07:48:02.266Z,19.92
2018-04-02T07:49:02.269Z,19.93
2018-04-02T07:50:02.291Z,19.92
2018-04-02T07:51:02.271Z,19.92
2018-04-02T07:52:02.275Z,19.92
2018-04-02T07:53:02.254Z,19.92
2018-04-02T07:54:02.256Z,19.96
2018-04-02T07:55:02.333Z,19.95
2018-04-02T07:56:02.329Z,19.95
2018-04-02T07:57:02.423Z,19.96
2018-04-02T07:58:02.270Z,19.99
2018-04-02T07:59:02.244Z,19.96
2018-04-02T08:00:02.277Z,19.96
2018-04-02T08:01:02.266Z,19.99
2018-04-02T08:02:02.306Z,19.98
2018-04-02T08:03:02.278Z,19.99
2018-04-02T08:04:02.247Z,20.01
2018-04-02T08:05:02.266Z,19.99
2018-04-02T08:06:02.270Z,19.99
2018-04-02T08:07:02.268Z,20.02
2018-04-02T08:08:02.267Z,20.01
2018-04-02T08:09:02.287Z,20.01
2018-04-02T08:10:02.268Z,20.02
2018-04-02T08:11:02.277Z,20.02
2018-04-02T08:12:02.332Z,20.05
2018-04-02T08:13:02.263Z,20.07
2018-04-02T08:14:02.285Z,20.05
2018-04-02T08:15:02.253Z,20.08
2018-04-02T08:16:02.266Z,20.07
2018-04-02T08:17:02.298Z,20.02
2018-04-02T08:18:02.658Z,20.05
2018-04-02T08:19:02.234Z,20.09
2018-04-02T08:20:02.288Z,20.07
2018-04-02T08:21:02.245Z,20.08
2018-04-02T08:22:02.326Z,20.08
2018-04-02T08:23:02.263Z,20.07
2018-04-02T08:24:02.262Z,20.08
2018-04-02T08:25:02.285Z,20.11
2018-04-02T08:26:02.260Z,20.08
2018-04-02T08:27:02.386Z,20.12
2018-04-02T08:28:02.266Z,20.12
2018-04-02T08:29:02.286Z,20.09
2018-04-02T08:30:02.246Z,20.12
2018-04-02T08:31:02.237Z,20.15
2018-04-02T08:32:02.266Z,20.12
2018-04-02T08:33:02.438Z,20.12
2018-04-02T08:34:02.243Z,20.15
2018-04-02T08:35:02.311Z,20.15
2018-04-02T08:36:02.210Z,20.13
2018-04-02T08:37:02.297Z,20.16
2018-04-02T08:38:02.282Z,20.16
2018-04-02T08:39:02.256Z,20.15
2018-04-02T08:40:02.237Z,20.15
2018-04-02T08:41:02.258Z,20.13
2018-04-02T08:42:02.259Z,20.13
2018-04-02T08:43:02.263Z,20.15
2018-04-02T08:44:02.253Z,20.12
2018-04-02T08:45:02.284Z,20.13
2018-04-02T08:46:02.250Z,20.13
2018-04-02T08:47:02.243Z,20.11
2018-04-02T08:48:02.250Z,20.12
2018-04-02T08:49:02.223Z,20.16
2018-04-02T08:50:02.269Z,20.13
2018-04-02T08:51:02.247Z,20.12
2018-04-02T08:52:02.327Z,20.13
2018-04-02T08:53:02.231Z,20.11
2018-04-02T08:54:02.263Z,20.16
2018-04-02T08:55:02.299Z,20.12
2018-04-02T08:56:02.224Z,20.13
2018-04-02T08:57:02.327Z,20.11
2018-04-02T08:58:02.418Z,20.13
2018-04-02T08:59:02.254Z,20.09
2018-04-02T09:00:02.299Z,20.12
2018-04-02T09:01:02.246Z,20.12
2018-04-02T09:02:02.280Z,20.11
2018-04-02T09:03:02.223Z,20.12
2018-04-02T09:04:02.293Z,20.12
2018-04-02T09:05:02.297Z,20.09
2018-04-02T09:06:02.308Z,20.12
2018-04-02T09:07:02.227Z,20.11
2018-04-02T09:08:02.232Z,20.09
2018-04-02T09:09:02.224Z,20.09
2018-04-02T09:10:02.289Z,20.12
2018-04-02T09:11:02.210Z,20.07
2018-04-02T09:12:02.260Z,20.08
2018-04-02T09:13:02.231Z,20.13
2018-04-02T09:14:02.239Z,20.09
2018-04-02T09:15:02.260Z,20.09
2018-04-02T09:16:02.227Z,20.13
2018-04-02T09:17:02.252Z,20.11
2018-04-02T09:18:02.316Z,20.11
2018-04-02T09:19:02.212Z,20.15
2018-04-02T09:20:02.249Z,20.12
2018-04-02T09:21:02.244Z,20.15
2018-04-02T09:22:02.225Z,20.18
2018-04-02T09:23:02.263Z,20.15
2018-04-02T09:24:02.216Z,20.18
2018-04-02T09:25:02.238Z,20.19
2018-04-02T09:26:02.254Z,20.16
2018-04-02T09:27:02.263Z,20.19
2018-04-02T09:28:02.234Z,20.22
2018-04-02T09:29:02.289Z,20.2
2018-04-02T09:30:02.240Z,20.19
2018-04-02T09:31:02.253Z,20.23
2018-04-02T09:32:02.229Z,20.16
2018-04-02T09:33:02.249Z,20.19
2018-04-02T09:34:02.264Z,20.19
2018-04-02T09:35:02.244Z,20.16
2018-04-02T09:36:02.302Z,20.2
2018-04-02T09:37:02.311Z,20.19
2018-04-02T09:38:02.227Z,20.19
2018-04-02T09:39:02.263Z,20.2
2018-04-02T09:40:02.224Z,20.2
2018-04-02T09:41:02.271Z,20.19
2018-04-02T09:42:02.242Z,20.22
2018-04-02T09:43:02.227Z,20.23
2018-04-02T09:44:02.239Z,20.23
2018-04-02T09:45:02.322Z,20.23
2018-04-02T09:46:02.247Z,20.25
2018-04-02T09:47:02.196Z,20.22
2018-04-02T09:48:02.254Z,20.25
2018-04-02T09:49:02.236Z,20.26
2018-04-02T09:50:02.238Z,20.27
2018-04-02T09:51:02.411Z,20.27
2018-04-02T09:52:02.231Z,20.3
2018-04-02T09:53:02.206Z,20.3
2018-04-02T09:54:02.527Z,20.32
2018-04-02T09:55:02.235Z,20.3
2018-04-02T09:56:02.263Z,20.3
2018-04-02T09:57:02.242Z,20.32
2018-04-02T09:58:02.229Z,20.35
2018-04-02T09:59:02.296Z,20.35
2018-04-02T10:00:02.407Z,20.36
2018-04-02T10:01:02.363Z,20.36
2018-04-02T10:02:04.322Z,20.36
2018-04-02T10:03:02.226Z,20.37
2018-04-02T10:04:02.257Z,20.37
2018-04-02T10:05:03.499Z,20.42
2018-04-02T10:06:02.249Z,20.44
2018-04-02T10:07:02.218Z,20.42
2018-04-02T10:08:02.227Z,20.4
2018-04-02T10:09:02.230Z,20.37
2018-04-02T10:10:03.078Z,20.39
2018-04-02T10:11:02.234Z,20.39
2018-04-02T10:12:02.285Z,20.4
2018-04-02T10:13:02.199Z,20.37
2018-04-02T10:14:02.238Z,20.4
2018-04-02T10:15:02.204Z,20.4
2018-04-02T10:16:02.227Z,20.4
2018-04-02T10:17:02.255Z,20.43
2018-04-02T10:18:02.233Z,20.4
2018-04-02T10:19:02.293Z,20.42
2018-04-02T10:20:02.250Z,20.42
2018-04-02T10:21:02.283Z,20.48
2018-04-02T10:22:02.219Z,20.48
2018-04-02T10:23:02.228Z,20.44
2018-04-02T10:24:03.022Z,20.46
2018-04-02T10:25:02.219Z,20.46
2018-04-02T10:26:02.235Z,20.47
2018-04-02T10:27:02.251Z,20.51
2018-04-02T10:28:02.290Z,20.5
2018-04-02T10:29:02.237Z,20.43
2018-04-02T10:30:02.910Z,20.48
2018-04-02T10:31:06.513Z,20.48
2018-04-02T10:32:02.216Z,20.48
2018-04-02T10:33:02.253Z,20.48
2018-04-02T10:34:02.258Z,20.48
2018-04-02T10:35:02.267Z,20.46
2018-04-02T10:36:02.254Z,20.47
2018-04-02T10:37:02.244Z,20.5
2018-04-02T10:38:08.817Z,20.47
2018-04-02T10:39:02.231Z,20.5
2018-04-02T10:40:02.264Z,20.53
2018-04-02T10:41:02.295Z,20.48
2018-04-02T10:42:02.264Z,20.5
2018-04-02T10:43:02.250Z,20.5
2018-04-02T10:44:02.222Z,20.47
2018-04-02T10:45:02.208Z,20.5
2018-04-02T10:46:02.231Z,20.5
2018-04-02T10:47:02.246Z,20.5
2018-04-02T10:48:02.264Z,20.51
2018-04-02T10:49:02.284Z,20.51
2018-04-02T10:50:02.231Z,20.53
2018-04-02T10:51:02.215Z,20.55
2018-04-02T10:51:25.615Z,20.66
2018-04-02T10:52:25.598Z,20.74
2018-04-02T11:12:10.788Z,20.98
2018-04-02T11:13:10.758Z,20.98
2018-04-02T11:14:10.731Z,21.01
2018-04-02T11:15:10.782Z,21.09
2018-04-02T11:16:10.780Z,21.09
2018-04-02T11:17:10.733Z,21.01
2018-04-02T11:18:10.753Z,20.94
2018-04-02T11:19:10.761Z,20.91
2018-04-02T11:20:10.787Z,20.85
2018-04-02T11:21:10.758Z,20.84
2018-04-02T11:22:10.769Z,20.82
2018-04-02T11:23:10.742Z,20.78
2018-04-02T11:24:10.755Z,20.77
2018-04-02T11:25:10.751Z,20.84
2018-04-02T11:26:10.773Z,20.84
2018-04-02T11:27:10.763Z,20.85
2018-04-02T11:27:42.731Z,20.85
2018-04-02T11:28:42.726Z,20.85
2018-04-02T11:29:34.074Z,20.82
2018-04-02T11:30:34.070Z,20.88
2018-04-02T11:31:34.129Z,20.88
2018-04-02T11:32:34.090Z,20.87
2018-04-02T11:33:34.104Z,20.88
2018-04-02T11:34:34.081Z,20.89
2018-04-02T11:35:34.046Z,20.92
2018-04-02T11:36:34.081Z,20.89
2018-04-02T11:37:34.091Z,20.88
2018-04-02T11:38:34.065Z,20.84
2018-04-02T11:39:34.100Z,20.8
2018-04-02T11:40:34.074Z,20.77
2018-04-02T11:41:34.061Z,20.78
2018-04-02T11:42:34.111Z,20.75
2018-04-02T11:43:34.067Z,20.75
2018-04-02T11:44:34.066Z,20.74
2018-04-02T11:45:34.084Z,20.72
2018-04-02T11:46:34.064Z,20.72
2018-04-02T11:47:34.088Z,20.75
2018-04-02T11:48:42.741Z,20.78
2018-04-02T11:49:42.752Z,20.82
2018-04-02T11:50:42.768Z,20.84
2018-04-02T11:51:42.761Z,20.85
2018-04-02T11:52:42.816Z,20.88
2018-04-02T11:53:42.773Z,20.88
2018-04-02T11:54:42.786Z,20.91
2018-04-02T11:55:56.692Z,20.94
2018-04-02T11:56:56.616Z,20.92
2018-04-02T11:57:56.577Z,20.94
2018-04-02T11:58:56.598Z,20.92
2018-04-02T11:59:56.591Z,20.95
2018-04-02T12:00:56.587Z,20.95
2018-04-02T12:01:56.640Z,20.95
2018-04-02T12:02:56.630Z,20.98
2018-04-02T12:03:57.067Z,20.98
2018-04-02T12:04:56.585Z,20.98
2018-04-02T12:05:56.611Z,20.94
2018-04-02T12:06:56.593Z,20.91
2018-04-02T12:07:56.626Z,20.91
2018-04-02T12:08:56.602Z,20.87
2018-04-02T12:09:56.599Z,20.85
2018-04-02T12:10:56.568Z,20.85
2018-04-02T12:11:56.599Z,20.88
2018-04-02T12:12:56.629Z,20.94
2018-04-02T12:13:56.579Z,20.94
2018-04-02T12:14:56.609Z,20.95
2018-04-02T12:15:56.644Z,20.97
2018-04-02T12:16:56.602Z,21.01
2018-04-02T12:17:56.581Z,21.01
2018-04-02T12:18:56.473Z,21.01
2018-04-02T12:19:56.637Z,21.03
2018-04-02T12:20:57.273Z,21.03
2018-04-02T12:21:56.587Z,21.05
2018-04-02T12:22:56.664Z,21.02
2018-04-02T12:23:56.617Z,21.01
2018-04-02T12:24:56.872Z,21.01
2018-04-02T12:25:56.752Z,21.01
2018-04-02T12:26:56.637Z,20.99
2018-04-02T12:27:56.609Z,21.01
2018-04-02T12:28:56.631Z,20.99
2018-04-02T12:29:56.822Z,20.98
2018-04-02T12:30:56.795Z,20.98
2018-04-02T12:31:56.583Z,20.99
2018-04-02T12:32:56.629Z,20.98
2018-04-02T12:33:56.610Z,20.97
2018-04-02T12:34:56.613Z,20.94
2018-04-02T12:35:56.633Z,20.94
2018-04-02T12:36:56.812Z,20.94
2018-04-02T12:37:56.595Z,21.05
2018-04-02T12:38:56.584Z,21.02
2018-04-02T12:39:56.592Z,21.01
2018-04-02T12:40:56.565Z,20.97
2018-04-02T12:41:56.632Z,20.91
2018-04-02T12:42:58.164Z,20.92
2018-04-02T12:43:57.687Z,20.91
2018-04-02T12:44:56.609Z,20.85
2018-04-02T12:45:56.622Z,20.84
2018-04-02T12:46:56.877Z,20.85
2018-04-02T12:47:56.624Z,20.82
2018-04-02T12:48:56.574Z,20.78
2018-04-02T12:49:56.578Z,20.8
2018-04-02T12:50:56.576Z,20.77
2018-04-02T12:51:56.621Z,20.78
2018-04-02T12:52:56.576Z,20.78
2018-04-02T12:53:56.589Z,20.74
2018-04-02T12:54:56.603Z,20.74
2018-04-02T12:55:56.603Z,20.74
2018-04-02T12:56:56.920Z,20.72
2018-04-02T12:57:56.598Z,20.72
2018-04-02T12:58:56.736Z,20.71
2018-04-02T12:59:56.613Z,20.7
2018-04-02T13:00:56.671Z,20.7
2018-04-02T13:01:56.619Z,20.71
2018-04-02T13:02:56.594Z,20.68
2018-04-02T13:03:56.591Z,20.68
2018-04-02T13:04:56.596Z,20.67
2018-04-02T13:05:56.591Z,20.64
2018-04-02T13:06:56.661Z,20.66
2018-04-02T13:07:56.578Z,20.67
2018-04-02T13:08:56.603Z,20.66
2018-04-02T13:09:56.585Z,20.63
2018-04-02T13:10:56.584Z,20.63
2018-04-02T13:11:56.581Z,20.63
2018-04-02T13:12:56.575Z,20.64